Cincinnati, OH (45201)

11:31 PM EST on February 19, 2017 (GMT -0500)
Norwood | | Change Station
Active Advisory: Dense Fog Advisory

Elev 620 ft 39.15 °N, 84.45 °W | Updated 1 minute ago

Fog
Fog
41.9 °F
Feels Like 42 °F
N
0.0
Wind Variable Wind from East

Today
High -- | Low -- °F
--% Chance of Precip.
Yesterday
High -- | Low -- °F
Precip. -- in
Pressure 30.18 in
Visibility 0.2 miles
Clouds
Windchill 42 °F
Dew Point 40 °F
Humidity 95%
Rainfall 0.00 in
Snow Depth Not available.
7:23 AM 6:19 PM
Last Quarter, 37% visible
SPECI KLUK 200406Z AUTO 00000KT 1/4SM R21L/3000VP6000FT FG VV005 03/03 A3018 RMK AO2 T00330033
Pressure 30.18 in
Visibility 0.2 miles
Clouds
Windchill 42 °F
Dew Point 40 °F
Humidity 95%
Rainfall 0.00 in
Snow Depth Not available.
7:23 AM 6:19 PM
Last Quarter, 37% visible
SPECI KLUK 200406Z AUTO 00000KT 1/4SM R21L/3000VP6000FT FG VV005 03/03 A3018 RMK AO2 T00330033

Get Your Daily Forecast Email!

Thanks for signing up!

Be on the lookout for a verification email in your inbox.

You'll start receiving the daily forecast at 8 AM.

×

10-Day Weather Forecast

Almanac

Astronomy

Feb. 19, 2017 Rise Set
Actual Time
Civil Twilight
Nautical Twilight
Astronomical Twilight
Moon
Length of Visible Light
Length of Day
Tomorrow will be .
, % of the Moon is Illuminated

Today's Extremes

State Highs State Lows

Community

WunderPhotos

Upload Photos

1,962,540 photos uploaded!

WunderBlog® & News

Nearby

Air Quality

  Air Quality AQ Index Pollutant
Not available.

Snow Depth

Station Depth Elevation

Earthquake Activity

City Distance Mag. Time & Date
Minimum magnitude displayed is 2.5.

Coastal Water Temperatures

Place Temperature

Stations

Nearby Weather Stations

Station Location Temp. Windchill Dew Point Humidity Wind Precip. Elev Updated Type
                   

Watches & Warnings

Dense Fog Advisory
Issued: 10:30 PM EST Feb. 19, 2017 – National Weather Service

... Dense fog advisory in effect until 10 am EST Monday...

The National Weather Service in Wilmington has issued a dense fog
advisory... which is in effect until 10 am EST Monday.

* Timing... areas of dense fog can be expected overnight and into
the morning hours on Monday.

* Impacts... visibilities will be a quarter of a mile or less at
times. These poor visibilities will result in hazardous travel
conditions.

Precautionary/preparedness actions...

Motorists should use extra caution. Slow down, use low-beam
headlights, and leave plenty of distance ahead of you as objects
on and near roadways will be seen only at close range due to low
visibilities.